createdAt,value
2023-04-23T00:02:26.955Z,2.47
2023-04-23T00:04:58.420Z,2.55
2023-04-23T00:07:27.047Z,3.33
2023-04-23T00:09:59.061Z,3.10
2023-04-23T00:12:27.907Z,2.50
2023-04-23T00:14:57.242Z,2.90
2023-04-23T00:17:25.260Z,3.17
2023-04-23T00:19:53.342Z,2.55
2023-04-23T00:22:22.133Z,2.95
2023-04-23T00:24:50.125Z,3.08
2023-04-23T00:27:21.137Z,2.80
2023-04-23T00:29:51.430Z,2.55
2023-04-23T00:32:19.845Z,2.65
2023-04-23T00:34:48.868Z,2.60
2023-04-23T00:37:17.161Z,2.72
2023-04-23T00:39:45.639Z,2.60
2023-04-23T00:42:14.219Z,2.42
2023-04-23T00:44:44.979Z,2.78
2023-04-23T00:47:13.196Z,2.90
2023-04-23T00:49:43.544Z,2.47
2023-04-23T00:52:11.903Z,2.40
2023-04-23T00:54:40.140Z,2.90
2023-04-23T00:57:09.013Z,2.55
2023-04-23T00:59:37.615Z,2.47
2023-04-23T01:02:07.495Z,2.60
2023-04-23T01:04:38.066Z,2.00
2023-04-23T01:07:07.590Z,2.30
2023-04-23T01:09:35.780Z,2.35
2023-04-23T01:12:06.508Z,2.28
2023-04-23T01:14:35.433Z,2.65
2023-04-23T01:17:03.489Z,2.17
2023-04-23T01:19:33.276Z,2.60
2023-04-23T01:22:01.773Z,2.47
2023-04-23T01:24:32.506Z,2.20
2023-04-23T01:27:01.729Z,2.20
2023-04-23T01:29:31.212Z,2.67
2023-04-23T01:32:00.312Z,2.60
2023-04-23T01:34:28.449Z,2.60
2023-04-23T01:36:57.915Z,2.55
2023-04-23T01:39:26.362Z,2.50
2023-04-23T01:41:57.030Z,2.30
2023-04-23T01:44:28.185Z,2.47
2023-04-23T01:46:57.495Z,2.45
2023-04-23T01:49:26.194Z,2.67
2023-04-23T01:51:54.321Z,2.12
2023-04-23T01:54:22.459Z,2.92
2023-04-23T01:56:54.671Z,2.62
2023-04-23T01:59:24.290Z,2.67
2023-04-23T02:01:52.731Z,3.15
2023-04-23T02:04:21.355Z,2.75
2023-04-23T02:06:52.030Z,3.20
2023-04-23T02:09:21.230Z,2.87
2023-04-23T02:11:49.500Z,2.90
2023-04-23T02:14:18.010Z,2.50
2023-04-23T02:16:48.000Z,3.10
2023-04-23T02:19:16.999Z,2.47
2023-04-23T02:21:45.345Z,2.95
2023-04-23T02:24:13.563Z,3.78
2023-04-23T02:26:41.848Z,3.08
2023-04-23T02:29:10.194Z,3.40
2023-04-23T02:31:38.415Z,2.97
2023-04-23T02:34:08.216Z,2.75
2023-04-23T02:36:36.731Z,2.50
2023-04-23T02:39:05.030Z,2.87
2023-04-23T02:41:33.082Z,3.50
2023-04-23T02:44:01.472Z,3.12
2023-04-23T02:46:29.677Z,3.08
2023-04-23T02:48:57.753Z,2.83
2023-04-23T02:51:27.613Z,3.00
2023-04-23T02:53:55.748Z,3.17
2023-04-23T02:56:23.897Z,2.55
2023-04-23T02:58:52.301Z,3.10
2023-04-23T03:01:20.345Z,2.80
2023-04-23T03:03:48.678Z,2.85
2023-04-23T03:06:18.095Z,3.42
2023-04-23T03:08:47.405Z,3.97
2023-04-23T03:11:15.750Z,2.72
2023-04-23T03:13:44.078Z,3.08
2023-04-23T03:16:12.109Z,3.45
2023-04-23T03:18:40.374Z,3.45
2023-04-23T03:21:08.759Z,3.03
2023-04-23T03:23:37.346Z,2.97
2023-04-23T03:26:06.864Z,3.35
2023-04-23T03:28:35.246Z,3.00
2023-04-23T03:31:03.360Z,3.08
2023-04-23T03:33:31.479Z,3.17
2023-04-23T03:35:59.862Z,2.90
2023-04-23T03:38:28.377Z,2.67
2023-04-23T03:40:57.837Z,3.05
2023-04-23T03:43:27.787Z,2.45
2023-04-23T03:45:58.459Z,3.10
2023-04-23T03:48:27.111Z,2.50
2023-04-23T03:50:55.313Z,2.92
2023-04-23T03:53:25.025Z,2.92
2023-04-23T03:55:56.169Z,2.45
2023-04-23T03:58:24.592Z,2.03
2023-04-23T04:00:54.688Z,2.10
2023-04-23T04:03:23.281Z,2.47
2023-04-23T04:05:51.605Z,2.80
2023-04-23T04:08:19.640Z,2.53
2023-04-23T04:10:48.081Z,2.22
2023-04-23T04:13:16.146Z,2.37
2023-04-23T04:15:44.249Z,2.15
2023-04-23T04:18:13.854Z,2.60
2023-04-23T04:20:44.285Z,2.03
2023-04-23T04:23:12.706Z,2.40
2023-04-23T04:25:40.912Z,2.37
2023-04-23T04:28:09.408Z,1.80
2023-04-23T04:30:38.189Z,2.10
2023-04-23T04:33:06.369Z,2.12
2023-04-23T04:35:35.986Z,2.10
2023-04-23T04:38:04.233Z,2.40
2023-04-23T04:40:33.805Z,2.22
2023-04-23T04:43:02.131Z,2.17
2023-04-23T04:45:30.418Z,2.28
2023-04-23T04:47:58.529Z,2.25
2023-04-23T04:50:26.981Z,2.28
2023-04-23T04:52:56.660Z,2.45
2023-04-23T04:55:24.699Z,1.65
2023-04-23T04:57:52.741Z,2.15
2023-04-23T05:00:23.647Z,1.92
2023-04-23T05:02:52.417Z,1.75
2023-04-23T05:05:22.690Z,2.10
2023-04-23T05:07:51.468Z,2.05
2023-04-23T05:10:22.104Z,1.92
2023-04-23T05:12:52.044Z,1.70
2023-04-23T05:15:20.244Z,1.83
2023-04-23T05:17:50.276Z,1.92
2023-04-23T05:20:18.624Z,2.10
2023-04-23T05:22:46.661Z,1.87
2023-04-23T05:25:14.990Z,1.83
2023-04-23T05:27:44.743Z,2.35
2023-04-23T05:30:13.398Z,2.20
2023-04-23T05:32:41.645Z,1.70
2023-04-23T05:35:10.429Z,2.10
2023-04-23T05:37:38.534Z,2.22
2023-04-23T05:40:07.893Z,1.60
2023-04-23T05:42:37.456Z,2.28
2023-04-23T05:45:09.065Z,1.98
2023-04-23T05:47:37.986Z,1.70
2023-04-23T05:50:07.313Z,1.80
2023-04-23T05:52:37.402Z,1.52
2023-04-23T05:55:07.840Z,1.70
2023-04-23T05:57:37.845Z,1.65
2023-04-23T06:00:11.268Z,1.17
2023-04-23T06:02:41.194Z,1.20
2023-04-23T06:05:11.108Z,1.45
2023-04-23T06:07:39.462Z,1.00
2023-04-23T06:10:08.793Z,1.00
2023-04-23T06:12:39.261Z,1.02
2023-04-23T06:15:09.970Z,0.95
2023-04-23T06:17:38.745Z,1.10
2023-04-23T06:20:09.003Z,0.93
2023-04-23T06:22:37.080Z,1.02
2023-04-23T06:25:06.576Z,0.90
2023-04-23T06:27:34.754Z,1.00
2023-04-23T06:30:03.411Z,1.15
2023-04-23T06:32:33.083Z,0.95
2023-04-23T06:35:02.321Z,1.00
2023-04-23T06:37:31.897Z,0.82
2023-04-23T06:40:00.604Z,0.93
2023-04-23T06:42:28.682Z,1.02
2023-04-23T06:44:59.481Z,0.90
2023-04-23T06:47:27.722Z,0.93
2023-04-23T06:49:57.363Z,1.10
2023-04-23T06:52:25.344Z,0.82
2023-04-23T06:54:53.694Z,1.08
2023-04-23T06:57:21.922Z,1.08
2023-04-23T06:59:49.988Z,0.93
2023-04-23T07:02:18.808Z,1.20
2023-04-23T07:04:47.709Z,0.90
2023-04-23T07:07:17.300Z,1.00
2023-04-23T07:09:45.661Z,0.98
2023-04-23T07:12:13.743Z,1.30
2023-04-23T07:14:42.027Z,1.33
2023-04-23T07:17:11.204Z,1.00
2023-04-23T07:19:39.222Z,0.98
2023-04-23T07:22:07.479Z,1.10
2023-04-23T07:24:36.990Z,1.12
2023-04-23T07:27:05.785Z,1.15
2023-04-23T07:29:34.167Z,1.08
2023-04-23T07:32:02.472Z,1.15
2023-04-23T07:34:30.671Z,0.88
2023-04-23T07:36:59.035Z,1.10
2023-04-23T07:39:27.414Z,1.12
2023-04-23T07:41:58.341Z,1.08
2023-04-23T07:44:26.443Z,1.10
2023-04-23T07:46:55.541Z,1.02
2023-04-23T07:49:23.566Z,1.15
2023-04-23T07:51:51.517Z,0.80
2023-04-23T07:54:20.124Z,0.73
2023-04-23T07:56:48.119Z,0.50
2023-04-23T07:59:17.511Z,0.70
2023-04-23T08:01:45.832Z,0.80
2023-04-23T08:04:14.686Z,0.90
2023-04-23T08:06:43.124Z,1.10
2023-04-23T08:09:11.182Z,0.93
2023-04-23T08:11:39.500Z,1.20
2023-04-23T08:14:07.630Z,1.48
2023-04-23T08:16:39.100Z,1.25
2023-04-23T08:19:07.768Z,1.40
2023-04-23T08:21:36.024Z,1.60
2023-04-23T08:24:05.260Z,2.28
2023-04-23T08:26:33.554Z,2.15
2023-04-23T08:29:01.718Z,2.25
2023-04-23T08:31:29.830Z,2.70
2023-04-23T08:33:59.709Z,2.40
2023-04-23T08:36:29.454Z,2.55
2023-04-23T08:38:57.750Z,3.05
2023-04-23T08:41:36.123Z,2.87
2023-04-23T08:44:13.129Z,2.83
2023-04-23T08:46:44.554Z,3.25
2023-04-23T08:49:17.168Z,3.40
2023-04-23T08:51:50.489Z,3.33
2023-04-23T08:54:26.365Z,2.85
2023-04-23T08:56:57.576Z,3.08
2023-04-23T08:59:26.991Z,2.90
2023-04-23T09:01:56.160Z,2.50
2023-04-23T09:04:26.447Z,2.35
2023-04-23T09:06:54.531Z,3.00
2023-04-23T09:09:24.610Z,2.50
2023-04-23T09:11:54.632Z,2.28
2023-04-23T09:14:25.871Z,2.00
2023-04-23T09:16:54.835Z,2.20
2023-04-23T09:19:22.944Z,1.65
2023-04-23T09:21:53.836Z,1.40
2023-04-23T09:24:23.824Z,1.50
2023-04-23T09:26:53.390Z,1.60
2023-04-23T09:29:23.599Z,1.45
2023-04-23T09:31:53.835Z,1.40
2023-04-23T09:34:23.704Z,1.62
2023-04-23T09:36:54.118Z,1.00
2023-04-23T09:39:24.452Z,1.08
2023-04-23T09:41:53.863Z,0.60
2023-04-23T09:44:23.559Z,1.17
2023-04-23T09:46:51.836Z,0.70
2023-04-23T09:49:20.128Z,1.20
2023-04-23T09:51:50.257Z,0.80
2023-04-23T09:54:24.985Z,0.90
2023-04-23T09:56:57.132Z,0.70
2023-04-23T10:02:03.016Z,1.20
2023-04-23T10:04:31.583Z,1.00
2023-04-23T10:07:17.434Z,1.02
2023-04-23T10:09:48.869Z,2.00
2023-04-23T10:12:36.669Z,1.12
2023-04-23T10:15:08.270Z,1.00
2023-04-23T10:17:37.159Z,1.60
2023-04-23T10:20:07.063Z,1.90
2023-04-23T10:22:36.748Z,5.95
2023-04-23T10:25:10.558Z,2.92
2023-04-23T10:27:52.055Z,1.50
2023-04-23T10:30:21.884Z,1.83
2023-04-23T10:32:51.454Z,1.58
2023-04-23T10:35:19.688Z,1.25
2023-04-23T10:37:49.078Z,1.15
2023-04-23T10:40:22.966Z,1.40
2023-04-23T10:42:51.694Z,1.40
2023-04-23T10:45:25.254Z,1.10
2023-04-23T10:47:55.968Z,1.75
2023-04-23T10:50:26.877Z,1.80
2023-04-23T10:52:57.281Z,2.20
2023-04-23T10:55:29.046Z,1.50
2023-04-23T10:58:01.271Z,1.85
2023-04-23T11:00:43.097Z,1.60
2023-04-23T11:03:31.599Z,1.70
2023-04-23T11:06:02.841Z,2.00
2023-04-23T11:08:33.043Z,2.03
2023-04-23T11:11:07.416Z,1.62
2023-04-23T11:13:35.761Z,1.60
2023-04-23T11:16:18.639Z,1.85
2023-04-23T11:18:57.685Z,1.50
2023-04-23T11:21:59.982Z,1.60
2023-04-23T11:24:29.516Z,1.70
2023-04-23T11:26:59.635Z,1.83
2023-04-23T11:29:29.352Z,2.10
2023-04-23T11:32:03.172Z,2.22
2023-04-23T11:34:33.200Z,1.67
2023-04-23T11:37:03.335Z,1.30
2023-04-23T11:39:31.501Z,1.52
2023-04-23T11:42:03.231Z,1.12
2023-04-23T11:44:32.015Z,1.40
2023-04-23T11:47:03.330Z,1.60
2023-04-23T11:49:31.692Z,1.30
2023-04-23T11:52:01.594Z,1.48
2023-04-23T11:54:30.548Z,1.40
2023-04-23T11:57:00.297Z,1.20
2023-04-23T11:59:28.989Z,1.17
2023-04-23T12:01:58.680Z,1.40
2023-04-23T12:04:28.793Z,1.25
2023-04-23T12:06:57.896Z,1.20
2023-04-23T12:09:30.198Z,1.20
2023-04-23T12:12:00.326Z,1.40
2023-04-23T12:14:31.219Z,1.15
2023-04-23T12:17:09.965Z,1.10
2023-04-23T12:19:38.352Z,3.08
2023-04-23T12:22:08.551Z,1.10
2023-04-23T12:24:47.629Z,1.25
2023-04-23T12:27:20.142Z,0.80
2023-04-23T12:29:48.519Z,1.10
2023-04-23T12:32:16.781Z,0.95
2023-04-23T12:34:53.963Z,1.00
2023-04-23T12:37:26.239Z,1.20
2023-04-23T12:39:56.440Z,0.90
2023-04-23T12:42:26.703Z,0.80
2023-04-23T12:44:55.699Z,1.23
2023-04-23T12:47:24.278Z,0.50
2023-04-23T12:49:55.325Z,0.47
2023-04-23T12:52:23.548Z,0.73
2023-04-23T12:54:56.301Z,0.80
2023-04-23T12:57:27.035Z,0.90
2023-04-23T12:59:56.338Z,0.70
2023-04-23T13:02:25.981Z,0.60
2023-04-23T13:04:59.576Z,0.70
2023-04-23T13:07:27.927Z,0.95
2023-04-23T13:09:57.318Z,0.60
2023-04-23T13:12:26.928Z,0.65
2023-04-23T13:14:55.352Z,1.10
2023-04-23T13:17:25.273Z,0.60
2023-04-23T13:19:53.384Z,0.70
2023-04-23T13:22:22.521Z,0.52
2023-04-23T13:24:50.585Z,0.60
2023-04-23T13:27:18.467Z,2.55
2023-04-23T13:29:47.996Z,1.48
2023-04-23T13:32:16.811Z,0.65
2023-04-23T13:34:44.781Z,0.62
2023-04-23T13:37:13.127Z,0.60
2023-04-23T13:39:41.932Z,0.60
2023-04-23T13:42:10.429Z,0.50
2023-04-23T13:44:38.762Z,0.50
2023-04-23T13:47:08.392Z,0.55
2023-04-23T13:49:36.395Z,0.60
2023-04-23T13:52:06.987Z,0.75
2023-04-23T13:54:35.727Z,0.57
2023-04-23T13:57:04.414Z,0.75
2023-04-23T13:59:32.564Z,0.55
2023-04-23T14:02:02.893Z,0.50
2023-04-23T14:04:37.538Z,0.68
2023-04-23T14:07:05.721Z,0.40
2023-04-23T14:09:34.149Z,0.70
2023-04-23T14:12:02.315Z,0.68
2023-04-23T14:14:30.459Z,0.40
2023-04-23T14:16:58.751Z,0.32
2023-04-23T14:19:26.943Z,0.40
2023-04-23T14:21:56.275Z,0.57
2023-04-23T14:24:28.687Z,0.80
2023-04-23T14:26:56.952Z,0.40
2023-04-23T14:29:31.937Z,0.40
2023-04-23T14:31:59.888Z,0.57
2023-04-23T14:34:28.583Z,0.60
2023-04-23T14:36:57.997Z,0.55
2023-04-23T14:39:26.897Z,0.62
2023-04-23T14:41:55.358Z,0.40
2023-04-23T14:44:26.340Z,0.70
2023-04-23T14:46:54.385Z,0.60
2023-04-23T14:49:23.390Z,0.50
2023-04-23T14:51:54.506Z,0.68
2023-04-23T14:54:24.371Z,0.62
2023-04-23T14:56:52.858Z,0.80
2023-04-23T14:59:22.002Z,0.50
2023-04-23T15:01:50.491Z,1.42
2023-04-23T15:04:18.790Z,0.75
2023-04-23T15:06:46.842Z,0.75
2023-04-23T15:09:15.754Z,0.70
2023-04-23T15:11:45.308Z,0.70
2023-04-23T15:14:21.361Z,0.75
2023-04-23T15:16:50.412Z,0.65
2023-04-23T15:19:19.738Z,0.68
2023-04-23T15:21:48.359Z,0.60
2023-04-23T15:24:17.400Z,0.60
2023-04-23T15:26:46.795Z,0.45
2023-04-23T15:29:14.812Z,0.60
2023-04-23T15:31:43.277Z,0.88
2023-04-23T15:34:12.416Z,0.75
2023-04-23T15:36:40.518Z,0.80
2023-04-23T15:39:09.689Z,0.40
2023-04-23T15:41:40.795Z,0.45
2023-04-23T15:44:15.453Z,0.70
2023-04-23T15:46:43.442Z,0.90
2023-04-23T15:49:11.760Z,0.60
2023-04-23T15:51:40.095Z,0.60
2023-04-23T15:54:09.070Z,0.60
2023-04-23T15:56:37.936Z,0.40
2023-04-23T15:59:06.290Z,0.55
2023-04-23T16:01:36.404Z,0.50
2023-04-23T16:06:35.785Z,0.60
2023-04-23T16:09:06.716Z,0.55
2023-04-23T16:11:35.545Z,0.60
2023-04-23T16:14:03.751Z,0.60
2023-04-23T16:16:31.975Z,0.50
2023-04-23T16:19:01.992Z,0.60
2023-04-23T16:21:29.987Z,0.52
2023-04-23T16:23:57.890Z,0.60
2023-04-23T16:26:26.188Z,0.50
2023-04-23T16:29:05.822Z,0.60
2023-04-23T16:31:40.237Z,0.93
2023-04-23T16:34:09.860Z,0.70
2023-04-23T16:36:38.131Z,0.50
2023-04-23T16:39:06.364Z,0.60
2023-04-23T16:41:36.232Z,0.70
2023-04-23T16:44:04.218Z,0.57
2023-04-23T16:46:32.776Z,0.50
2023-04-23T16:49:00.826Z,0.68
2023-04-23T16:51:30.466Z,0.90
2023-04-23T16:53:59.209Z,0.75
2023-04-23T16:56:27.350Z,0.82
2023-04-23T16:58:55.522Z,0.95
2023-04-23T17:01:23.847Z,0.90
2023-04-23T17:03:52.112Z,0.88
2023-04-23T17:06:26.926Z,1.00
2023-04-23T17:08:58.272Z,1.00
2023-04-23T17:11:26.866Z,0.80
2023-04-23T17:13:56.489Z,0.90
2023-04-23T17:16:26.723Z,0.88
2023-04-23T17:18:55.089Z,0.80
2023-04-23T17:21:23.512Z,0.80
2023-04-23T17:23:51.916Z,0.90
2023-04-23T17:26:21.245Z,0.80
2023-04-23T17:28:49.203Z,0.98
2023-04-23T17:31:18.411Z,1.00
2023-04-23T17:33:49.186Z,0.90
2023-04-23T17:36:18.082Z,1.00
2023-04-23T17:38:46.390Z,1.00
2023-04-23T17:41:19.230Z,1.00
2023-04-23T17:43:49.378Z,0.82
2023-04-23T17:46:18.398Z,1.20
2023-04-23T17:48:46.764Z,0.98
2023-04-23T17:51:16.080Z,1.00
2023-04-23T17:53:48.181Z,0.80
2023-04-23T17:56:16.501Z,0.93
2023-04-23T17:58:45.173Z,0.70
2023-04-23T18:01:15.495Z,0.90
2023-04-23T18:03:44.132Z,0.70
2023-04-23T18:06:12.724Z,0.95
2023-04-23T18:08:42.608Z,1.77
2023-04-23T18:11:11.273Z,0.90
2023-04-23T18:13:39.542Z,1.25
2023-04-23T18:16:07.611Z,0.90
2023-04-23T18:18:37.218Z,1.20
2023-04-23T18:21:05.903Z,1.10
2023-04-23T18:23:35.802Z,1.12
2023-04-23T18:26:04.338Z,0.93
2023-04-23T18:28:32.893Z,0.88
2023-04-23T18:31:02.581Z,0.90
2023-04-23T18:33:33.621Z,0.90
2023-04-23T18:36:09.175Z,1.00
2023-04-23T18:38:40.656Z,1.10
2023-04-23T18:41:08.683Z,1.00
2023-04-23T18:43:36.879Z,1.23
2023-04-23T18:46:05.115Z,1.30
2023-04-23T18:48:46.033Z,1.00
2023-04-23T18:51:21.686Z,1.20
2023-04-23T18:53:49.849Z,1.05
2023-04-23T18:56:18.068Z,1.10
2023-04-23T18:58:46.146Z,1.10
2023-04-23T19:01:14.766Z,1.10
2023-04-23T19:03:43.492Z,1.50
2023-04-23T19:06:11.635Z,1.33
2023-04-23T19:08:42.329Z,1.45
2023-04-23T19:11:10.887Z,1.27
2023-04-23T19:13:38.854Z,1.37
2023-04-23T19:16:07.008Z,1.12
2023-04-23T19:18:35.425Z,1.35
2023-04-23T19:21:04.475Z,1.45
2023-04-23T19:23:32.611Z,1.30
2023-04-23T19:26:03.255Z,1.23
2023-04-23T19:28:31.954Z,1.60
2023-04-23T19:31:00.379Z,1.45
2023-04-23T19:33:28.314Z,1.52
2023-04-23T19:35:56.388Z,1.73
2023-04-23T19:38:25.083Z,1.67
2023-04-23T19:40:53.072Z,1.55
2023-04-23T19:43:22.502Z,1.55
2023-04-23T19:45:50.726Z,2.05
2023-04-23T19:48:18.770Z,1.60
2023-04-23T19:50:47.822Z,2.35
2023-04-23T19:53:16.153Z,1.80
2023-04-23T19:55:44.152Z,1.90
2023-04-23T19:58:12.862Z,2.15
2023-04-23T20:00:43.885Z,1.87
2023-04-23T20:03:12.734Z,1.80
2023-04-23T20:05:42.300Z,1.83
2023-04-23T20:08:15.570Z,2.12
2023-04-23T20:10:44.311Z,1.65
2023-04-23T20:13:12.781Z,2.00
2023-04-23T20:15:43.212Z,1.85
2023-04-23T20:18:11.710Z,1.73
2023-04-23T20:20:40.018Z,1.90
2023-04-23T20:23:08.063Z,1.65
2023-04-23T20:25:37.699Z,1.23
2023-04-23T20:28:06.502Z,1.67
2023-04-23T20:30:34.801Z,2.03
2023-04-23T20:33:04.617Z,1.70
2023-04-23T20:35:33.641Z,1.50
2023-04-23T20:38:02.070Z,1.30
2023-04-23T20:40:34.345Z,1.83
2023-04-23T20:43:04.560Z,1.30
2023-04-23T20:45:34.499Z,2.10
2023-04-23T20:48:04.040Z,1.80
2023-04-23T20:50:32.468Z,1.50
2023-04-23T20:53:01.039Z,1.48
2023-04-23T20:55:29.160Z,1.80
2023-04-23T20:57:57.460Z,1.65
2023-04-23T21:00:25.566Z,1.62
2023-04-23T21:02:53.739Z,1.48
2023-04-23T21:05:23.829Z,2.20
2023-04-23T21:07:51.834Z,1.52
2023-04-23T21:10:20.031Z,1.83
2023-04-23T21:12:48.633Z,1.70
2023-04-23T21:15:17.530Z,2.05
2023-04-23T21:17:45.593Z,1.92
2023-04-23T21:20:13.912Z,1.70
2023-04-23T21:22:43.412Z,1.87
2023-04-23T21:25:11.781Z,1.87
2023-04-23T21:27:42.020Z,1.95
2023-04-23T21:30:16.547Z,1.73
2023-04-23T21:32:44.983Z,1.50
2023-04-23T21:35:13.024Z,1.40
2023-04-23T21:37:41.058Z,1.90
2023-04-23T21:40:11.350Z,1.60
2023-04-23T21:42:40.045Z,1.67
2023-04-23T21:45:09.046Z,1.60
2023-04-23T21:47:37.303Z,1.70
2023-04-23T21:50:06.143Z,1.60
2023-04-23T21:52:34.211Z,1.70
2023-04-23T21:55:02.420Z,1.90
2023-04-23T21:57:31.934Z,1.60
2023-04-23T22:00:00.124Z,1.85
2023-04-23T22:02:28.705Z,1.75
2023-04-23T22:04:57.604Z,1.62
2023-04-23T22:07:26.885Z,1.90
2023-04-23T22:09:57.124Z,1.70
2023-04-23T22:12:25.789Z,1.40
2023-04-23T22:14:55.121Z,1.70
2023-04-23T22:17:26.225Z,1.35
2023-04-23T22:19:54.569Z,1.35
2023-04-23T22:22:22.578Z,1.77
2023-04-23T22:24:50.711Z,1.48
2023-04-23T22:27:19.182Z,1.40
2023-04-23T22:29:47.259Z,1.27
2023-04-23T22:32:16.599Z,1.70
2023-04-23T22:34:45.125Z,1.95
2023-04-23T22:37:13.348Z,2.03
2023-04-23T22:39:41.723Z,1.52
2023-04-23T22:42:10.301Z,1.37
2023-04-23T22:44:38.768Z,1.30
2023-04-23T22:47:06.715Z,1.60
2023-04-23T22:49:36.513Z,1.52
2023-04-23T22:52:04.989Z,1.42
2023-04-23T22:54:32.950Z,1.73
2023-04-23T22:57:02.088Z,1.30
2023-04-23T22:59:31.086Z,1.15
2023-04-23T23:01:59.095Z,1.25
2023-04-23T23:04:27.535Z,1.23
2023-04-23T23:06:56.924Z,1.08
2023-04-23T23:09:24.900Z,1.05
2023-04-23T23:11:53.270Z,1.02
2023-04-23T23:14:21.448Z,1.27
2023-04-23T23:16:49.466Z,0.93
2023-04-23T23:19:17.730Z,1.05
2023-04-23T23:21:45.731Z,1.10
2023-04-23T23:24:15.366Z,1.10
2023-04-23T23:26:43.614Z,1.02
2023-04-23T23:29:11.637Z,1.10
2023-04-23T23:31:39.778Z,1.02
2023-04-23T23:34:08.753Z,1.10
2023-04-23T23:36:36.778Z,1.00
2023-04-23T23:39:05.467Z,0.88
2023-04-23T23:41:35.100Z,0.73
2023-04-23T23:44:03.077Z,0.80
2023-04-23T23:46:31.288Z,0.77
2023-04-23T23:48:59.738Z,0.62
2023-04-23T23:51:28.234Z,0.60
2023-04-23T23:53:56.291Z,0.60
2023-04-23T23:56:24.565Z,0.80
2023-04-23T23:58:53.924Z,0.80
